createdAt,value
2023-04-12T00:00:35.396Z,98606.53
2023-04-12T00:03:07.901Z,98594.69
2023-04-12T00:05:36.477Z,98591.84
2023-04-12T00:08:05.505Z,98604.41
2023-04-12T00:10:34.032Z,98600.03
2023-04-12T00:13:02.774Z,98605.94
2023-04-12T00:15:32.019Z,98609.75
2023-04-12T00:18:02.476Z,98606.41
2023-04-12T00:20:31.073Z,98602.00
2023-04-12T00:23:00.332Z,98598.22
2023-04-12T00:25:28.927Z,98594.91
2023-04-12T00:27:57.204Z,98595.16
2023-04-12T00:30:25.934Z,98605.09
2023-04-12T00:32:54.740Z,98596.81
2023-04-12T00:35:25.536Z,98586.88
2023-04-12T00:37:53.961Z,98584.50
2023-04-12T00:40:22.587Z,98578.31
2023-04-12T00:42:51.139Z,98603.34
2023-04-12T00:45:19.549Z,98572.41
2023-04-12T00:47:48.160Z,98581.88
2023-04-12T00:50:16.794Z,98576.78
2023-04-12T00:52:47.057Z,98569.09
2023-04-12T00:55:16.342Z,98566.25
2023-04-12T00:57:45.013Z,98555.56
2023-04-12T01:00:14.243Z,98562.25
2023-04-12T01:02:48.053Z,98549.91
2023-04-12T01:05:22.395Z,98553.59
2023-04-12T01:08:06.651Z,98553.69
2023-04-12T01:10:45.231Z,98553.81
2023-04-12T01:13:23.015Z,98559.88
2023-04-12T01:15:59.165Z,98547.31
2023-04-12T01:18:32.292Z,98542.44
2023-04-12T01:21:08.316Z,98542.22
2023-04-12T01:23:53.630Z,98538.44
2023-04-12T01:26:35.388Z,98533.34
2023-04-12T01:29:11.745Z,98541.63
2023-04-12T01:31:43.484Z,98553.84
2023-04-12T01:34:15.629Z,98540.31
2023-04-12T01:36:47.726Z,98541.28
2023-04-12T01:39:16.757Z,98518.19
2023-04-12T01:41:49.116Z,98512.16
2023-04-12T01:44:20.226Z,98516.78
2023-04-12T01:46:49.945Z,98517.94
2023-04-12T01:49:19.760Z,98515.47
2023-04-12T01:51:54.056Z,98503.50
2023-04-12T01:54:27.676Z,98499.59
2023-04-12T01:56:59.411Z,98508.72
2023-04-12T01:59:33.784Z,98506.09
2023-04-12T02:02:04.110Z,98494.13
2023-04-12T02:04:35.413Z,98468.44
2023-04-12T02:07:04.389Z,98484.91
2023-04-12T02:09:38.067Z,98471.97
2023-04-12T02:12:07.601Z,98464.53
2023-04-12T02:14:37.994Z,98462.28
2023-04-12T02:17:08.749Z,98470.59
2023-04-12T02:19:37.340Z,98454.00
2023-04-12T02:22:06.491Z,98452.81
2023-04-12T02:24:34.865Z,98453.19
2023-04-12T02:27:04.172Z,98436.50
2023-04-12T02:29:32.835Z,98448.47
2023-04-12T02:32:02.707Z,98443.72
2023-04-12T02:34:34.471Z,98438.38
2023-04-12T02:37:03.956Z,98420.00
2023-04-12T02:39:34.747Z,98403.53
2023-04-12T02:42:03.176Z,98403.59
2023-04-12T02:44:31.804Z,98399.66
2023-04-12T02:47:00.179Z,98382.28
2023-04-12T02:49:30.156Z,98386.09
2023-04-12T02:51:58.942Z,98382.53
2023-04-12T02:54:27.725Z,98364.66
2023-04-12T02:56:56.071Z,98365.25
2023-04-12T02:59:25.532Z,98353.75
2023-04-12T03:01:54.178Z,98345.81
2023-04-12T03:04:30.464Z,98356.97
2023-04-12T03:07:00.728Z,98341.09
2023-04-12T03:09:29.131Z,98329.47
2023-04-12T03:11:57.605Z,98313.75
2023-04-12T03:14:26.091Z,98302.59
2023-04-12T03:16:54.565Z,98312.34
2023-04-12T03:19:23.362Z,98314.22
2023-04-12T03:21:52.153Z,98289.44
2023-04-12T03:24:22.376Z,98290.63
2023-04-12T03:26:52.395Z,98284.97
2023-04-12T03:29:20.917Z,98300.91
2023-04-12T03:31:49.521Z,98246.19
2023-04-12T03:34:18.031Z,98278.66
2023-04-12T03:36:46.825Z,98282.94
2023-04-12T03:39:15.269Z,98293.28
2023-04-12T03:41:45.638Z,98283.88
2023-04-12T03:44:14.633Z,98281.25
2023-04-12T03:46:43.390Z,98279.03
2023-04-12T03:49:12.155Z,98271.50
2023-04-12T03:51:43.231Z,98264.50
2023-04-12T03:54:13.203Z,98242.72
2023-04-12T03:56:43.227Z,98236.91
2023-04-12T03:59:14.917Z,98232.88
2023-04-12T04:01:43.713Z,98226.50
2023-04-12T04:04:12.339Z,98229.22
2023-04-12T04:06:41.306Z,98227.97
2023-04-12T04:09:10.096Z,98222.50
2023-04-12T04:11:38.641Z,98219.06
2023-04-12T04:14:07.868Z,98207.13
2023-04-12T04:16:38.140Z,98211.25
2023-04-12T04:19:06.767Z,98189.78
2023-04-12T04:21:35.503Z,98184.34
2023-04-12T04:24:04.353Z,98173.72
2023-04-12T04:26:33.981Z,98145.44
2023-04-12T04:29:03.894Z,98149.56
2023-04-12T04:31:36.741Z,98153.53
2023-04-12T04:34:10.511Z,98131.88
2023-04-12T04:36:40.281Z,98128.81
2023-04-12T04:39:09.483Z,98125.56
2023-04-12T04:41:39.765Z,98125.34
2023-04-12T04:44:10.879Z,98111.13
2023-04-12T04:46:40.238Z,98101.00
2023-04-12T04:49:10.071Z,98079.84
2023-04-12T04:51:38.544Z,98070.13
2023-04-12T04:54:07.403Z,98057.66
2023-04-12T04:56:35.950Z,98046.97
2023-04-12T04:59:04.559Z,98040.81
2023-04-12T05:01:36.773Z,98026.25
2023-04-12T05:04:05.604Z,98023.13
2023-04-12T05:06:35.775Z,98027.53
2023-04-12T05:09:05.531Z,98013.69
2023-04-12T05:11:35.209Z,97985.84
2023-04-12T05:14:03.656Z,97985.84
2023-04-12T05:16:32.214Z,97971.03
2023-04-12T05:19:00.723Z,97956.91
2023-04-12T05:21:29.646Z,97950.88
2023-04-12T05:23:59.681Z,97935.34
2023-04-12T05:26:28.438Z,97920.53
2023-04-12T05:28:57.330Z,97936.72
2023-04-12T05:31:33.631Z,97913.00
2023-04-12T05:34:02.279Z,97910.66
2023-04-12T05:36:30.831Z,97899.81
2023-04-12T05:39:00.531Z,97892.78
2023-04-12T05:41:29.021Z,97895.84
2023-04-12T05:43:57.675Z,97894.72
2023-04-12T05:46:26.316Z,97878.50
2023-04-12T05:48:55.002Z,97873.78
2023-04-12T05:51:37.732Z,97852.34
2023-04-12T05:54:10.939Z,97849.31
2023-04-12T05:56:41.130Z,97831.44
2023-04-12T05:59:11.887Z,97825.06
2023-04-12T06:01:43.012Z,97802.50
2023-04-12T06:04:12.020Z,97789.56
2023-04-12T06:06:40.413Z,97774.16
2023-04-12T06:09:13.746Z,97774.47
2023-04-12T06:11:42.151Z,97756.06
2023-04-12T06:14:11.823Z,97754.84
2023-04-12T06:16:42.006Z,97745.94
2023-04-12T06:19:11.217Z,97730.06
2023-04-12T06:21:39.873Z,97733.06
2023-04-12T06:24:09.270Z,97717.50
2023-04-12T06:26:40.368Z,97718.03
2023-04-12T06:29:08.811Z,97719.66
2023-04-12T06:31:37.192Z,97712.28
2023-04-12T06:34:06.331Z,97701.31
2023-04-12T06:36:36.043Z,97695.56
2023-04-12T06:39:05.277Z,97687.56
2023-04-12T06:41:34.570Z,97689.53
2023-04-12T06:44:06.433Z,97678.53
2023-04-12T06:46:36.082Z,97690.50
2023-04-12T06:49:04.719Z,97681.47
2023-04-12T06:51:34.755Z,97686.44
2023-04-12T06:54:03.220Z,97675.63
2023-04-12T06:56:32.046Z,97672.41
2023-04-12T06:59:00.815Z,97668.91
2023-04-12T07:01:30.866Z,97667.25
2023-04-12T07:03:59.586Z,97651.97
2023-04-12T07:06:29.042Z,97648.13
2023-04-12T07:08:58.793Z,97639.72
2023-04-12T07:11:28.593Z,97635.97
2023-04-12T07:13:59.328Z,97630.91
2023-04-12T07:16:27.904Z,97630.09
2023-04-12T07:18:58.159Z,97623.25
2023-04-12T07:21:27.787Z,97618.69
2023-04-12T07:23:59.809Z,97606.84
2023-04-12T07:26:28.432Z,97597.47
2023-04-12T07:28:57.262Z,97594.66
2023-04-12T07:31:26.028Z,97593.44
2023-04-12T07:33:55.768Z,97589.78
2023-04-12T07:36:27.698Z,97579.06
2023-04-12T07:38:57.562Z,97586.44
2023-04-12T07:41:26.669Z,97583.69
2023-04-12T07:43:55.287Z,97580.94
2023-04-12T07:46:24.247Z,97580.22
2023-04-12T07:48:53.643Z,97577.34
2023-04-12T07:51:22.081Z,97577.72
2023-04-12T07:53:52.246Z,97581.22
2023-04-12T07:56:20.771Z,97580.63
2023-04-12T07:58:49.427Z,97575.28
2023-04-12T08:01:17.727Z,97578.00
2023-04-12T08:03:47.457Z,97562.69
2023-04-12T08:06:16.044Z,97561.53
2023-04-12T08:08:44.845Z,97567.44
2023-04-12T08:11:14.893Z,97558.34
2023-04-12T08:13:43.499Z,97559.53
2023-04-12T08:16:13.382Z,97561.22
2023-04-12T08:18:41.921Z,97563.38
2023-04-12T08:21:10.708Z,97567.69
2023-04-12T08:23:39.783Z,97569.16
2023-04-12T08:26:08.408Z,97560.03
2023-04-12T08:28:39.848Z,97570.00
2023-04-12T08:31:09.596Z,97554.53
2023-04-12T08:33:37.940Z,97564.38
2023-04-12T08:36:07.569Z,97560.41
2023-04-12T08:38:44.930Z,97573.47
2023-04-12T08:41:15.545Z,97583.81
2023-04-12T08:43:47.816Z,97587.53
2023-04-12T08:46:17.252Z,97593.34
2023-04-12T08:48:48.076Z,97597.72
2023-04-12T08:51:19.006Z,97597.41
2023-04-12T08:53:48.271Z,97598.72
2023-04-12T08:56:19.996Z,97599.97
2023-04-12T08:58:50.868Z,97615.03
2023-04-12T09:01:21.745Z,97620.00
2023-04-12T09:03:50.476Z,97626.47
2023-04-12T09:06:19.102Z,97632.63
2023-04-12T09:08:55.156Z,97631.44
2023-04-12T09:11:26.327Z,97642.94
2023-04-12T09:13:57.861Z,97640.91
2023-04-12T09:16:37.214Z,97645.63
2023-04-12T09:19:07.285Z,97647.72
2023-04-12T09:21:36.901Z,97647.78
2023-04-12T09:24:11.829Z,97641.44
2023-04-12T09:26:42.694Z,97640.63
2023-04-12T09:29:25.714Z,97632.19
2023-04-12T09:31:59.759Z,97637.81
2023-04-12T09:34:28.518Z,97638.56
2023-04-12T09:36:57.968Z,97637.91
2023-04-12T09:39:34.610Z,97644.59
2023-04-12T09:42:14.893Z,97656.88
2023-04-12T09:44:49.055Z,97643.16
2023-04-12T09:47:17.897Z,97640.09
2023-04-12T09:49:46.671Z,97646.94
2023-04-12T09:52:17.059Z,97643.22
2023-04-12T09:54:47.509Z,97638.00
2023-04-12T09:57:21.293Z,97648.34
2023-04-12T09:59:52.588Z,97646.88
2023-04-12T10:02:28.539Z,97641.63
2023-04-12T10:04:57.686Z,97643.75
2023-04-12T10:07:27.661Z,97638.56
2023-04-12T10:10:00.143Z,97645.94
2023-04-12T10:12:28.908Z,97643.81
2023-04-12T10:15:00.463Z,97642.94
2023-04-12T10:17:29.155Z,97651.03
2023-04-12T10:19:58.659Z,97637.47
2023-04-12T10:22:27.117Z,97649.91
2023-04-12T10:24:56.880Z,97676.78
2023-04-12T10:27:28.956Z,97650.09
2023-04-12T10:30:25.432Z,97652.84
2023-04-12T10:33:17.135Z,97655.34
2023-04-12T10:35:57.068Z,97664.47
2023-04-12T10:38:27.780Z,97665.78
2023-04-12T10:41:14.378Z,97675.63
2023-04-12T10:43:43.574Z,97678.06
2023-04-12T10:46:51.636Z,97684.66
2023-04-12T10:49:21.910Z,97696.59
2023-04-12T10:52:18.549Z,97696.59
2023-04-12T10:54:48.065Z,97710.19
2023-04-12T10:57:45.677Z,97697.41
2023-04-12T11:00:16.281Z,97712.00
2023-04-12T11:03:12.892Z,97712.66
2023-04-12T11:06:16.165Z,97732.00
2023-04-12T11:08:57.312Z,97710.81
2023-04-12T11:11:28.537Z,97743.63
2023-04-12T11:13:59.607Z,97721.19
2023-04-12T11:16:28.556Z,97741.34
2023-04-12T11:18:57.810Z,97735.41
2023-04-12T11:21:27.933Z,97743.09
2023-04-12T11:23:56.694Z,97752.28
2023-04-12T11:26:25.751Z,97751.13
2023-04-12T11:28:56.477Z,97759.81
2023-04-12T11:31:25.657Z,97769.03
2023-04-12T11:33:54.175Z,97757.88
2023-04-12T11:36:22.952Z,97770.50
2023-04-12T11:38:53.590Z,97770.16
2023-04-12T11:41:22.236Z,97790.84
2023-04-12T11:43:50.913Z,97784.44
2023-04-12T11:46:20.935Z,97782.63
2023-04-12T11:48:49.567Z,97785.91
2023-04-12T11:51:25.236Z,97785.72
2023-04-12T11:53:59.932Z,97791.16
2023-04-12T11:56:32.349Z,97798.69
2023-04-12T11:59:01.204Z,97797.56
2023-04-12T12:01:32.136Z,97800.50
2023-04-12T12:04:01.550Z,97802.78
2023-04-12T12:06:31.815Z,97813.78
2023-04-12T12:09:04.389Z,97814.59
2023-04-12T12:11:33.353Z,97810.34
2023-04-12T12:14:02.090Z,97816.53
2023-04-12T12:16:32.041Z,97825.41
2023-04-12T12:19:05.272Z,97830.97
2023-04-12T12:21:34.111Z,97819.53
2023-04-12T12:24:04.321Z,97831.00
2023-04-12T12:26:33.206Z,97825.25
2023-04-12T12:29:01.771Z,97823.94
2023-04-12T12:31:30.906Z,97832.50
2023-04-12T12:34:04.345Z,97825.91
2023-04-12T12:36:39.271Z,97832.13
2023-04-12T12:39:12.452Z,97844.13
2023-04-12T12:41:41.945Z,97832.31
2023-04-12T12:44:11.620Z,97833.78
2023-04-12T12:46:53.445Z,97847.72
2023-04-12T12:49:25.844Z,97862.97
2023-04-12T12:51:54.406Z,97851.50
2023-04-12T12:54:39.364Z,97864.44
2023-04-12T12:57:10.019Z,97909.63
2023-04-12T12:59:38.696Z,97884.88
2023-04-12T13:02:07.638Z,97883.75
2023-04-12T13:04:36.656Z,97897.97
2023-04-12T13:07:05.257Z,97905.38
2023-04-12T13:09:35.325Z,97931.91
2023-04-12T13:12:04.374Z,97945.09
2023-04-12T13:14:32.904Z,97951.25
2023-04-12T13:17:01.538Z,97951.06
2023-04-12T13:19:30.172Z,97958.91
2023-04-12T13:21:58.502Z,97981.53
2023-04-12T13:24:27.036Z,97969.84
2023-04-12T13:26:58.416Z,97973.94
2023-04-12T13:29:27.306Z,97983.47
2023-04-12T13:31:55.933Z,97980.97
2023-04-12T13:34:24.756Z,97984.34
2023-04-12T13:36:54.120Z,98007.47
2023-04-12T13:39:22.981Z,97997.03
2023-04-12T13:41:51.889Z,98002.16
2023-04-12T13:44:22.207Z,98004.72
2023-04-12T13:46:52.130Z,98018.16
2023-04-12T13:49:20.714Z,98012.84
2023-04-12T13:51:49.365Z,98020.78
2023-04-12T13:54:17.953Z,98043.72
2023-04-12T13:56:46.580Z,98042.03
2023-04-12T13:59:15.375Z,98048.66
2023-04-12T14:01:45.568Z,98057.34
2023-04-12T14:04:14.407Z,98047.28
2023-04-12T14:06:43.063Z,98050.44
2023-04-12T14:09:11.759Z,98054.28
2023-04-12T14:11:50.063Z,98061.41
2023-04-12T14:14:18.577Z,98066.03
2023-04-12T14:16:48.682Z,98068.75
2023-04-12T14:19:17.320Z,98072.41
2023-04-12T14:21:45.885Z,98072.53
2023-04-12T14:24:14.437Z,98064.94
2023-04-12T14:26:44.292Z,98072.47
2023-04-12T14:29:13.766Z,98080.59
2023-04-12T14:31:42.564Z,98083.63
2023-04-12T14:34:13.599Z,98093.78
2023-04-12T14:36:42.189Z,98091.72
2023-04-12T14:39:13.906Z,98103.25
2023-04-12T14:41:43.427Z,98102.75
2023-04-12T14:44:12.112Z,98109.44
2023-04-12T14:46:41.003Z,98115.28
2023-04-12T14:49:09.580Z,98116.00
2023-04-12T14:51:39.601Z,98126.09
2023-04-12T14:54:08.399Z,98138.00
2023-04-12T14:56:44.489Z,98174.75
2023-04-12T14:59:16.486Z,98150.56
2023-04-12T15:01:45.112Z,98155.53
2023-04-12T15:04:13.964Z,98167.38
2023-04-12T15:06:45.178Z,98181.38
2023-04-12T15:09:18.076Z,98187.28
2023-04-12T15:11:47.234Z,98220.81
2023-04-12T15:14:18.234Z,98204.56
2023-04-12T15:16:49.406Z,98239.75
2023-04-12T15:19:22.910Z,98233.97
2023-04-12T15:21:55.526Z,98259.09
2023-04-12T15:24:24.383Z,98242.03
2023-04-12T15:26:54.343Z,98298.00
2023-04-12T15:29:24.867Z,98296.13
2023-04-12T15:31:56.711Z,98281.50
2023-04-12T15:34:25.835Z,98305.53
2023-04-12T15:36:56.418Z,98307.16
2023-04-12T15:39:25.020Z,98345.63
2023-04-12T15:41:53.937Z,98285.16
2023-04-12T15:44:25.784Z,98326.25
2023-04-12T15:47:07.916Z,98375.28
2023-04-12T15:49:40.201Z,98378.06
2023-04-12T15:52:10.280Z,98384.81
2023-04-12T15:54:43.788Z,98393.94
2023-04-12T15:57:12.880Z,98399.28
2023-04-12T15:59:42.209Z,98433.72
2023-04-12T16:02:11.137Z,98419.28
2023-04-12T16:04:40.814Z,98474.56
2023-04-12T16:07:11.088Z,98469.88
2023-04-12T16:10:22.468Z,98484.75
2023-04-12T16:12:52.051Z,98483.91
2023-04-12T16:15:22.461Z,98496.31
2023-04-12T16:17:53.501Z,98510.09
2023-04-12T16:20:23.033Z,98517.81
2023-04-12T16:22:56.110Z,98521.25
2023-04-12T16:25:27.733Z,98531.06
2023-04-12T16:27:56.630Z,98551.28
2023-04-12T16:30:25.914Z,98535.47
2023-04-12T16:32:54.466Z,98569.91
2023-04-12T16:35:23.061Z,98568.53
2023-04-12T16:37:53.031Z,98564.94
2023-04-12T16:40:25.826Z,98628.50
2023-04-12T16:42:55.459Z,98617.19
2023-04-12T16:45:24.136Z,98596.09
2023-04-12T16:47:55.115Z,98616.75
2023-04-12T16:50:24.461Z,98630.34
2023-04-12T16:52:54.922Z,98631.84
2023-04-12T16:55:23.630Z,98660.25
2023-04-12T16:57:58.216Z,98645.22
2023-04-12T17:00:29.406Z,98638.84
2023-04-12T17:02:59.142Z,98669.06
2023-04-12T17:05:30.580Z,98651.41
2023-04-12T17:08:00.828Z,98661.06
2023-04-12T17:10:30.719Z,98661.06
2023-04-12T17:12:59.528Z,98672.66
2023-04-12T17:15:32.568Z,98694.88
2023-04-12T17:18:06.892Z,98704.09
2023-04-12T17:20:35.816Z,98716.31
2023-04-12T17:23:10.413Z,98716.19
2023-04-12T17:25:39.263Z,98741.81
2023-04-12T17:28:09.688Z,98738.50
2023-04-12T17:30:39.029Z,98747.03
2023-04-12T17:33:08.217Z,98738.38
2023-04-12T17:35:37.266Z,98727.88
2023-04-12T17:38:07.405Z,98728.41
2023-04-12T17:40:36.426Z,98721.00
2023-04-12T17:43:05.178Z,98724.72
2023-04-12T17:45:33.959Z,98733.97
2023-04-12T17:48:02.734Z,98749.03
2023-04-12T17:50:31.422Z,98736.09
2023-04-12T17:53:00.257Z,98745.50
2023-04-12T17:55:30.577Z,98745.75
2023-04-12T17:57:59.370Z,98738.88
2023-04-12T18:00:29.301Z,98751.72
2023-04-12T18:02:59.192Z,98755.16
2023-04-12T18:05:29.050Z,98759.16
2023-04-12T18:07:58.526Z,98761.06
2023-04-12T18:10:27.898Z,98768.66
2023-04-12T18:12:57.919Z,98763.16
2023-04-12T18:15:27.461Z,98775.44
2023-04-12T18:17:58.424Z,98780.41
2023-04-12T18:20:35.426Z,98783.03
2023-04-12T18:23:04.108Z,98793.25
2023-04-12T18:25:33.803Z,98789.66
2023-04-12T18:28:04.157Z,98796.28
2023-04-12T18:30:34.869Z,98816.28
2023-04-12T18:33:04.178Z,98809.66
2023-04-12T18:35:33.280Z,98815.19
2023-04-12T18:38:02.851Z,98804.72
2023-04-12T18:40:31.612Z,98834.25
2023-04-12T18:43:03.413Z,98808.72
2023-04-12T18:45:34.688Z,98816.16
2023-04-12T18:48:04.567Z,98836.75
2023-04-12T18:50:33.159Z,98826.94
2023-04-12T18:53:02.011Z,98848.06
2023-04-12T18:55:30.721Z,98852.75
2023-04-12T18:58:01.622Z,98869.31
2023-04-12T19:00:32.178Z,98881.50
2023-04-12T19:03:02.588Z,98898.56
2023-04-12T19:05:31.306Z,98897.91
2023-04-12T19:08:07.037Z,98910.19
2023-04-12T19:10:35.999Z,98917.75
2023-04-12T19:13:05.653Z,98976.09
2023-04-12T19:15:34.259Z,98926.06
2023-04-12T19:18:04.259Z,98934.16
2023-04-12T19:20:34.004Z,98935.19
2023-04-12T19:23:03.814Z,98931.47
2023-04-12T19:25:33.268Z,98928.72
2023-04-12T19:28:02.740Z,98943.41
2023-04-12T19:30:33.644Z,98936.97
2023-04-12T19:33:03.847Z,98949.25
2023-04-12T19:35:33.866Z,98949.50
2023-04-12T19:38:03.821Z,98953.00
2023-04-12T19:40:33.405Z,98957.94
2023-04-12T19:43:01.951Z,98958.19
2023-04-12T19:45:30.847Z,98980.25
2023-04-12T19:47:59.659Z,98980.50
2023-04-12T19:50:32.838Z,99003.69
2023-04-12T19:53:01.337Z,99009.22
2023-04-12T19:55:30.640Z,99041.19
2023-04-12T19:58:00.726Z,99004.13
2023-04-12T20:00:30.386Z,99001.50
2023-04-12T20:02:59.559Z,99018.59
2023-04-12T20:05:28.600Z,99008.50
2023-04-12T20:07:58.659Z,99022.22
2023-04-12T20:10:30.114Z,99039.16
2023-04-12T20:12:58.714Z,99025.22
2023-04-12T20:15:27.412Z,99047.97
2023-04-12T20:17:56.999Z,99044.19
2023-04-12T20:20:26.077Z,99054.78
2023-04-12T20:22:57.340Z,99053.41
2023-04-12T20:25:29.156Z,99059.38
2023-04-12T20:28:01.676Z,99062.69
2023-04-12T20:30:37.163Z,99057.47
2023-04-12T20:33:07.162Z,99074.50
2023-04-12T20:35:36.059Z,99078.91
2023-04-12T20:38:04.686Z,99080.72
2023-04-12T20:40:36.027Z,99101.75
2023-04-12T20:43:06.225Z,99131.59
2023-04-12T20:45:34.944Z,99095.19
2023-04-12T20:48:03.511Z,99079.59
2023-04-12T20:50:33.147Z,99088.75
2023-04-12T20:53:01.421Z,99080.78
2023-04-12T20:55:35.217Z,99085.19
2023-04-12T20:58:06.924Z,99098.41
2023-04-12T21:00:38.228Z,99087.81
2023-04-12T21:03:09.077Z,99103.16
2023-04-12T21:05:40.087Z,99088.00
2023-04-12T21:08:09.240Z,99103.63
2023-04-12T21:10:39.767Z,99110.75
2023-04-12T21:13:22.239Z,99107.53
2023-04-12T21:15:52.659Z,99122.19
2023-04-12T21:18:25.948Z,99115.06
2023-04-12T21:20:55.801Z,99121.63
2023-04-12T21:23:30.413Z,99133.91
2023-04-12T21:26:03.004Z,99116.50
2023-04-12T21:28:32.981Z,99128.44
2023-04-12T21:31:04.274Z,99133.66
2023-04-12T21:33:35.231Z,99156.63
2023-04-12T21:36:03.834Z,99157.56
2023-04-12T21:38:32.440Z,99149.16
2023-04-12T21:41:07.282Z,99152.69
2023-04-12T21:43:37.258Z,99159.50
2023-04-12T21:46:09.325Z,99165.69
2023-04-12T21:48:41.990Z,99169.00
2023-04-12T21:51:10.456Z,99168.16
2023-04-12T21:53:38.920Z,99194.69
2023-04-12T21:56:09.237Z,99174.47
2023-04-12T21:58:40.418Z,99188.06
2023-04-12T22:01:10.508Z,99194.94
2023-04-12T22:03:44.485Z,99201.16
2023-04-12T22:06:20.355Z,99186.50
2023-04-12T22:08:50.075Z,99198.66
2023-04-12T22:11:19.726Z,99205.19
2023-04-12T22:13:54.553Z,99188.41
2023-04-12T22:16:23.391Z,99187.91
2023-04-12T22:18:53.491Z,99206.50
2023-04-12T22:21:23.047Z,99205.88
2023-04-12T22:23:51.585Z,99213.28
2023-04-12T22:26:19.966Z,99235.66
2023-04-12T22:28:50.287Z,99216.63
2023-04-12T22:31:23.134Z,99216.72
2023-04-12T22:33:56.932Z,99231.34
2023-04-12T22:36:29.361Z,99230.88
2023-04-12T22:38:58.444Z,99236.94
2023-04-12T22:41:28.736Z,99228.72
2023-04-12T22:44:03.245Z,99235.19
2023-04-12T22:46:33.449Z,99239.72
2023-04-12T22:49:03.509Z,99250.53
2023-04-12T22:51:32.444Z,99244.22
2023-04-12T22:54:02.908Z,99244.34
2023-04-12T22:56:31.534Z,99255.03
2023-04-12T22:59:01.022Z,99256.00
2023-04-12T23:01:29.901Z,99260.97
2023-04-12T23:04:03.405Z,99270.97
2023-04-12T23:06:32.855Z,99253.72
2023-04-12T23:09:01.688Z,99264.44
2023-04-12T23:11:31.403Z,99261.47
2023-04-12T23:14:00.445Z,99259.19
2023-04-12T23:16:29.914Z,99253.84
2023-04-12T23:19:01.906Z,99259.28
2023-04-12T23:21:30.707Z,99274.28
2023-04-12T23:23:59.390Z,99288.28
2023-04-12T23:26:29.373Z,99291.25
2023-04-12T23:29:01.840Z,99280.78
2023-04-12T23:31:32.519Z,99280.44
2023-04-12T23:34:06.459Z,99288.63
2023-04-12T23:36:36.428Z,99288.75
2023-04-12T23:39:09.377Z,99278.75
2023-04-12T23:41:41.084Z,99291.09
2023-04-12T23:44:09.728Z,99303.13
2023-04-12T23:46:39.262Z,99291.50
2023-04-12T23:49:10.376Z,99318.50
2023-04-12T23:51:42.812Z,99293.03
2023-04-12T23:54:11.345Z,99302.19
2023-04-12T23:56:39.861Z,99300.88
2023-04-12T23:59:08.424Z,99303.00
